Time;durP1;ratioP1;P1;durP2;ratioP2;P2;SDS_P1;SDS_P2;PMS_P1;PMS_P2;Temp;Humidity;BMP_temperature;BMP_pressure;BME280_temperature;BME280_humidity;BME280_pressure;Samples;Min_cycle;Max_cycle;Signal;HPM_P1;HPM_P2
2022/06/12 06:51:37;;;;;;;26.38;5.20;;;20.90;84.70;;;;;;6201218;23;20024;-72
2022/06/12 06:55:16;;;;;;;;;;;;;;;;;;;;;
2022/06/12 06:58:13;;;;;;;21.08;4.85;;;20.90;82.50;;;;;;6130526;23;20059;-74
2022/06/12 07:00:44;;;;;;;16.73;3.92;;;21.10;81.20;;;;;;6189984;23;20009;-74
2022/06/12 07:03:11;;;;;;;17.95;4.00;;;21.20;81.30;;;;;;6190157;23;20020;-74
2022/06/12 07:05:38;;;;;;;19.85;4.15;;;21.00;81.40;;;;;;6165223;23;20447;-72
2022/06/12 07:08:04;;;;;;;18.27;3.95;;;20.90;81.80;;;;;;6190050;23;20024;-72
2022/06/12 07:10:32;;;;;;;15.25;3.35;;;21.00;82.00;;;;;;6216739;23;20013;-73
2022/06/12 07:12:59;;;;;;;16.08;4.20;;;21.00;81.50;;;;;;6164861;23;20012;-72
2022/06/12 07:15:27;;;;;;;16.40;3.15;;;21.30;81.50;;;;;;6189778;23;20042;-73
2022/06/12 07:17:54;;;;;;;14.63;2.95;;;21.40;79.40;;;;;;6189416;23;20047;-74
2022/06/12 07:20:51;;;;;;;17.35;3.40;;;21.50;79.30;;;;;;6164749;23;20012;-74
2022/06/12 07:23:50;;;;;;;14.05;3.30;;;21.60;76.10;;;;;;6166006;23;20021;-73
2022/06/12 07:26:45;;;;;;;14.25;3.33;;;21.70;76.90;;;;;;6159586;23;20013;-78
2022/06/12 07:48:13;;;;;;;14.52;2.92;;;22.20;72.40;;;;;;5925360;24;20180;-75
2022/06/12 07:58:23;;;;;;;14.75;2.95;;;22.30;71.80;;;;;;6083449;23;20017;-74
2022/06/12 08:01:42;;;;;;;13.07;2.47;;;22.50;69.40;;;;;;6046815;23;20345;-79
2022/06/12 08:04:09;;;;;;;15.63;2.40;;;22.50;67.60;;;;;;6070576;23;20021;-75
2022/06/12 08:06:35;;;;;;;11.98;2.65;;;22.60;71.00;;;;;;6070384;23;20014;-82
2022/06/12 10:08:40;;;;;;;;;;;;;;;;;;;;;
2022/06/12 10:11:13;;;;;;;16.83;3.42;;;23.10;67.30;;;;;;6205826;23;20015;-71
2022/06/12 10:13:51;;;;;;;16.17;3.63;;;23.10;67.60;;;;;;6192530;23;20016;-70
2022/06/12 10:16:43;;;;;;;13.15;3.55;;;23.00;67.60;;;;;;6192459;23;20048;-77
2022/06/12 10:19:12;;;;;;;13.93;3.33;;;22.90;67.60;;;;;;6187355;23;20044;-75
2022/06/12 10:22:05;;;;;;;17.63;3.83;;;23.00;68.70;;;;;;6161050;23;20009;-78
2022/06/12 10:24:34;;;;;;;14.77;3.70;;;23.00;68.30;;;;;;6182014;23;20048;-81
2022/06/12 10:28:18;;;;;;;13.90;3.70;;;23.30;67.40;;;;;;6137887;23;20020;-77
2022/06/12 10:30:43;;;;;;;10.50;3.00;;;23.30;66.90;;;;;;6164653;23;20332;-82
2022/06/12 10:33:18;;;;;;;16.52;3.28;;;22.90;66.00;;;;;;6160230;23;20020;-77
2022/06/12 10:36:05;;;;;;;11.98;3.28;;;22.80;68.40;;;;;;6158907;23;20013;-80
2022/06/12 10:38:36;;;;;;;15.77;3.22;;;22.90;66.80;;;;;;6184210;23;20060;-77
2022/06/12 10:41:22;;;;;;;12.05;3.65;;;22.90;68.40;;;;;;6184349;23;20371;-78
2022/06/12 10:44:20;;;;;;;18.45;4.00;;;22.90;68.10;;;;;;6184076;23;20312;-79
2022/06/12 10:46:46;;;;;;;11.68;3.00;;;23.00;68.80;;;;;;6158637;23;20036;-76
2022/06/12 10:57:07;;;;;;;14.20;3.38;;;23.30;69.40;;;;;;6183856;23;20020;-74
2022/06/12 11:00:04;;;;;;;14.13;3.03;;;23.40;66.00;;;;;;6183830;23;20059;-73
2022/06/12 11:03:29;;;;;;;;;;;;;;;;;;;;;
2022/06/12 11:06:48;;;;;;;15.55;3.22;;;23.30;64.90;;;;;;6183302;23;20005;-77
2022/06/12 11:09:46;;;;;;;15.20;3.08;;;23.40;64.90;;;;;;6183077;23;20024;-75
2022/06/12 11:12:46;;;;;;;;;;;;;;;;;;;;;
2022/06/12 11:16:03;;;;;;;13.57;3.35;;;23.80;64.60;;;;;;6183393;23;20444;-73
2022/06/12 11:19:13;;;;;;;18.85;3.67;;;23.70;64.20;;;;;;6041388;23;20019;-75
2022/06/12 11:22:18;;;;;;;14.88;3.10;;;23.60;62.40;;;;;;6157802;23;20019;-76
2022/06/12 11:25:21;;;;;;;14.68;2.78;;;23.50;62.30;;;;;;6183769;23;20507;-77
2022/06/12 11:28:55;;;;;;;9.75;2.55;;;23.60;62.50;;;;;;6180757;23;20067;-77
2022/06/12 11:35:51;;;;;;;11.20;3.28;;;23.50;63.40;;;;;;6184906;23;20068;-79
2022/06/12 11:38:44;;;;;;;13.52;2.97;;;23.70;62.10;;;;;;6185331;23;20013;-77
2022/06/12 11:41:52;;;;;;;11.60;2.72;;;23.90;61.80;;;;;;6184999;23;20008;-72
2022/06/12 11:44:52;;;;;;;12.75;2.50;;;23.90;60.50;;;;;;6185269;23;20017;-79
2022/06/12 11:47:25;;;;;;;12.95;2.75;;;23.70;60.10;;;;;;6159825;23;20108;-78
2022/06/12 11:50:09;;;;;;;13.27;2.80;;;23.50;60.70;;;;;;6158959;23;20047;-77
2022/06/12 11:52:56;;;;;;;11.85;2.75;;;23.70;60.80;;;;;;6160060;23;20016;-78
2022/06/12 11:55:30;;;;;;;10.70;3.05;;;23.80;61.70;;;;;;6162506;23;20005;-79
2022/06/12 11:58:09;;;;;;;13.00;3.25;;;23.60;60.80;;;;;;6189914;23;20009;-79
2022/06/12 12:01:00;;;;;;;11.32;2.72;;;23.60;61.30;;;;;;6161408;23;20088;-78
2022/06/12 12:03:52;;;;;;;10.48;2.50;;;23.50;62.70;;;;;;6159987;23;20009;-78
2022/06/12 12:06:42;;;;;;;15.82;2.95;;;23.80;62.50;;;;;;6161104;23;20013;-77
2022/06/12 12:09:45;;;;;;;12.75;2.80;;;23.80;62.00;;;;;;6185805;23;20051;-78
2022/06/12 12:12:18;;;;;;;9.60;2.45;;;23.90;60.00;;;;;;6211090;23;20028;-80
2022/06/12 12:15:24;;;;;;;10.18;2.50;;;23.80;58.60;;;;;;6188509;23;20013;-80
2022/06/12 12:18:25;;;;;;;11.63;3.17;;;23.90;59.20;;;;;;6187460;23;20035;-80
2022/06/12 12:29:30;;;;;;;;;;;;;;;;;;;;;
2022/06/12 12:33:17;;;;;;;11.95;3.47;;;22.50;66.90;;;;;;6180922;23;20068;-79
2022/06/12 12:46:41;;;;;;;;;;;;;;;;;;;;;
2022/06/12 12:50:17;;;;;;;10.07;2.72;;;22.10;66.00;;;;;;6153506;23;20345;-79
2022/06/12 12:56:56;;;;;;;13.88;3.28;;;21.70;67.40;;;;;;6127849;23;20017;-81
2022/06/12 13:00:09;;;;;;;13.80;3.15;;;21.70;66.80;;;;;;6127947;23;20061;-79
2022/06/12 13:03:29;;;;;;;12.30;3.28;;;21.80;66.00;;;;;;6093999;23;20373;-81
2022/06/12 13:06:21;;;;;;;12.43;3.10;;;22.20;65.30;;;;;;6098298;23;20015;-80
2022/06/12 13:09:29;;;;;;;15.57;4.05;;;22.40;65.00;;;;;;6036203;23;20023;-79
2022/06/12 13:12:54;;;;;;;20.52;4.93;;;22.00;68.00;;;;;;6153310;23;20418;-80
2022/06/12 13:19:28;;;;;;;20.30;4.90;;;21.20;71.60;;;;;;6162489;23;20013;-80
2022/06/12 13:21:59;;;;;;;13.93;3.67;;;21.10;72.40;;;;;;6159439;23;20356;-79
2022/06/12 13:31:06;;;;;;;15.30;4.30;;;21.30;73.90;;;;;;6182157;23;20071;-80
2022/06/12 13:37:42;;;;;;;17.48;4.10;;;22.10;71.40;;;;;;6081580;23;20013;-80
2022/06/12 13:44:33;;;;;;;14.55;3.00;;;22.50;68.40;;;;;;6065565;23;20023;-80
2022/06/12 13:47:25;;;;;;;15.13;3.65;;;22.50;67.10;;;;;;6082021;23;20017;-79
2022/06/12 13:50:37;;;;;;;13.02;3.03;;;22.80;65.40;;;;;;6094180;23;20015;-81
2022/06/12 13:53:44;;;;;;;12.20;3.03;;;22.90;65.80;;;;;;6184745;23;20084;-80
2022/06/12 13:57:13;;;;;;;14.57;3.10;;;23.40;65.60;;;;;;6187351;23;20071;-81
2022/06/12 14:04:31;;;;;;;13.98;3.55;;;23.50;63.70;;;;;;6134961;23;20013;-81
2022/06/12 14:07:41;;;;;;;13.90;3.22;;;23.30;64.30;;;;;;5992659;23;20064;-80
2022/06/12 14:10:38;;;;;;;12.35;2.67;;;23.10;64.40;;;;;;6138577;23;20024;-80
2022/06/12 14:13:48;;;;;;;14.30;3.22;;;22.80;63.80;;;;;;6144248;23;20016;-81
2022/06/12 14:16:57;;;;;;;;;;;;;;;;;;;;;
2022/06/12 14:19:43;;;;;;;;;;;;;;;;;;;;;
2022/06/12 14:26:15;;;;;;;13.68;3.28;;;22.70;64.50;;;;;;6168389;23;20017;-80
2022/06/12 14:29:45;;;;;;;11.55;3.25;;;22.90;65.50;;;;;;6187059;23;20462;-80
2022/06/12 14:32:31;;;;;;;13.00;3.00;;;22.70;62.30;;;;;;6162105;23;20546;-81
2022/06/12 14:42:05;;;;;;;19.00;3.50;;;22.80;64.90;;;;;;6180060;23;20021;-80
2022/06/12 14:44:56;;;;;;;14.57;3.70;;;23.10;64.40;;;;;;6158259;23;20088;-78
2022/06/12 14:47:53;;;;;;;11.98;3.10;;;23.10;64.50;;;;;;6160343;23;20039;-79
2022/06/12 14:51:37;;;;;;;;;;;;;;;;;;;;;
2022/06/12 14:54:50;;;;;;;13.45;2.97;;;23.40;61.10;;;;;;6122769;23;20092;-81
2022/06/12 14:57:44;;;;;;;11.15;2.63;;;23.80;59.30;;;;;;6061444;23;20389;-80
2022/06/12 15:00:45;;;;;;;10.45;2.72;;;23.80;59.40;;;;;;6076868;23;20084;-79
2022/06/12 15:03:34;;;;;;;9.82;2.80;;;23.60;58.80;;;;;;6075890;23;20145;-79
2022/06/12 15:06:22;;;;;;;10.02;2.70;;;23.90;59.20;;;;;;6075208;23;20364;-79
2022/06/12 15:09:49;;;;;;;;;;;;;;;;;;;;;
2022/06/12 15:12:32;;;;;;;10.38;2.45;;;24.50;56.40;;;;;;6099944;23;20053;-78
2022/06/12 15:16:04;;;;;;;9.38;2.40;;;24.60;57.60;;;;;;5990383;23;20016;-78
2022/06/12 15:19:16;;;;;;;9.10;2.35;;;24.60;55.50;;;;;;5964784;23;20435;-79
2022/06/12 15:22:22;;;;;;;9.75;2.53;;;24.70;52.60;;;;;;6020201;23;20021;-79
2022/06/12 15:32:38;;;;;;;9.85;2.90;;;25.20;51.70;;;;;;6138250;23;20024;-80
2022/06/12 15:36:04;;;;;;;9.05;1.85;;;25.40;52.70;;;;;;6168121;23;20385;-81
2022/06/12 15:43:02;;;;;;;10.95;2.28;;;25.50;49.50;;;;;;6157425;23;20023;-80
2022/06/12 15:45:51;;;;;;;7.20;2.00;;;26.00;51.10;;;;;;6179064;23;20092;-80
2022/06/12 15:49:13;;;;;;;7.63;1.83;;;25.70;49.00;;;;;;6187256;23;20020;-79
2022/06/12 15:52:02;;;;;;;9.20;2.53;;;25.80;48.80;;;;;;6160016;23;20009;-80
2022/06/12 15:58:16;;;;;;;7.82;2.08;;;26.10;49.60;;;;;;6099445;23;20149;-80
2022/06/12 16:00:58;;;;;;;9.48;2.08;;;26.10;49.40;;;;;;6098683;23;20482;-79
2022/06/12 16:10:52;;;;;;;;;;;;;;;;;;;;;
2022/06/12 16:14:14;;;;;;;8.60;1.92;;;26.20;45.90;;;;;;5983873;23;20015;-81
2022/06/12 16:17:28;;;;;;;9.85;2.53;;;26.10;47.30;;;;;;6066287;23;20046;-80
2022/06/12 16:20:16;;;;;;;8.95;1.85;;;25.90;45.50;;;;;;5973730;24;20023;-80
2022/06/12 16:22:55;;;;;;;9.70;2.13;;;26.00;46.40;;;;;;5992226;23;20090;-81
2022/06/12 16:25:51;;;;;;;11.90;2.15;;;26.00;46.50;;;;;;6068168;23;20010;-81
2022/06/12 16:32:33;;;;;;;8.30;2.20;;;26.20;44.80;;;;;;6067505;23;20077;-80
2022/06/12 16:35:30;;;;;;;12.45;2.05;;;26.10;43.70;;;;;;6052714;23;20070;-80
2022/06/12 16:38:58;;;;;;;11.10;2.53;;;25.50;44.40;;;;;;6044918;23;20081;-81
2022/06/12 16:45:21;;;;;;;9.85;2.15;;;24.60;47.20;;;;;;6065627;23;20037;-81
2022/06/12 16:48:19;;;;;;;8.68;2.25;;;23.70;48.70;;;;;;6041514;23;20110;-80
2022/06/12 16:51:08;;;;;;;8.15;2.25;;;23.00;49.80;;;;;;6017618;23;20011;-79
2022/06/12 16:53:36;;;;;;;9.82;2.38;;;22.60;51.90;;;;;;6018503;23;20007;-80
2022/06/12 16:56:08;;;;;;;11.57;2.78;;;22.50;52.60;;;;;;6041332;23;20106;-80
2022/06/12 16:59:14;;;;;;;10.93;2.70;;;22.50;53.40;;;;;;6019999;23;20341;-80
2022/06/12 17:01:53;;;;;;;11.50;2.60;;;22.80;53.30;;;;;;6025703;23;20042;-80
2022/06/12 17:04:58;;;;;;;10.73;3.00;;;22.80;53.90;;;;;;6042952;23;20478;-81
2022/06/12 17:07:43;;;;;;;11.18;3.03;;;22.90;53.80;;;;;;6039751;23;20063;-80
2022/06/12 17:10:35;;;;;;;14.20;2.72;;;22.10;55.50;;;;;;6017373;23;20056;-80
2022/06/12 17:13:25;;;;;;;;;;;;;;;;;;;;;
2022/06/12 17:16:08;;;;;;;14.07;3.33;;;21.20;60.50;;;;;;6153393;23;20032;-80
2022/06/12 17:21:38;;;;;;;16.42;3.45;;;20.70;64.30;;;;;;6187274;23;20021;-79
2022/06/12 17:24:14;;;;;;;17.50;3.30;;;20.50;66.60;;;;;;6187472;23;20017;-81
2022/06/12 17:26:50;;;;;;;12.15;3.40;;;20.30;66.30;;;;;;6147468;23;20017;-80
2022/06/12 17:29:24;;;;;;;13.07;3.53;;;20.10;67.90;;;;;;6159052;23;20092;-81
2022/06/12 17:31:58;;;;;;;14.68;3.75;;;19.90;69.60;;;;;;6159852;23;20328;-80
2022/06/12 17:34:33;;;;;;;11.55;3.40;;;19.80;68.70;;;;;;6134611;23;20016;-80
2022/06/12 17:37:12;;;;;;;11.38;3.55;;;19.60;69.20;;;;;;6160249;23;20073;-79
2022/06/12 17:39:49;;;;;;;12.00;3.55;;;19.30;68.70;;;;;;6134954;23;20151;-81
2022/06/12 17:42:20;;;;;;;14.35;3.58;;;19.10;70.30;;;;;;6182219;23;20009;-80
2022/06/12 17:44:49;;;;;;;11.43;3.63;;;19.00;70.30;;;;;;6161034;23;20015;-79
2022/06/12 17:47:18;;;;;;;12.90;3.60;;;18.90;71.60;;;;;;6160746;23;20392;-79
2022/06/12 17:49:47;;;;;;;17.13;5.05;;;18.80;71.40;;;;;;6186076;23;20013;-79
2022/06/12 17:52:19;;;;;;;18.17;4.10;;;18.80;72.90;;;;;;6186102;23;20009;-80
2022/06/12 17:54:52;;;;;;;13.52;3.85;;;18.70;73.70;;;;;;6137600;23;20442;-81
2022/06/12 17:57:21;;;;;;;15.88;4.15;;;18.60;73.30;;;;;;6160955;23;20055;-80
2022/06/12 18:00:00;;;;;;;17.20;3.88;;;18.60;73.30;;;;;;6186301;23;20088;-80
2022/06/12 18:02:28;;;;;;;11.95;3.58;;;18.60;72.90;;;;;;6160869;23;20013;-80
2022/06/12 18:05:03;;;;;;;16.38;4.10;;;18.60;72.00;;;;;;6161221;23;20357;-80
2022/06/12 18:07:29;;;;;;;13.10;3.40;;;18.60;71.60;;;;;;6160819;23;20327;-80
2022/06/12 18:09:57;;;;;;;;;;;18.60;71.10;;;;;;6161298;23;20013;-79
2022/06/12 18:12:23;;;;;;;11.98;3.40;;;18.50;71.30;;;;;;6186017;23;19911;-80
2022/06/12 18:20:29;;;;;;;11.18;3.80;;;18.40;70.40;;;;;;6185599;23;20113;-78
2022/06/12 18:22:57;;;;;;;14.40;3.60;;;18.30;70.10;;;;;;6185540;23;20071;-80
2022/06/12 18:25:32;;;;;;;15.15;3.33;;;18.10;70.80;;;;;;6161726;23;20013;-79
2022/06/12 18:27:58;;;;;;;19.48;4.07;;;18.10;70.60;;;;;;6159551;23;20105;-78
2022/06/12 18:30:36;;;;;;;15.43;3.83;;;18.00;71.50;;;;;;6160998;23;20009;-79
2022/06/12 18:33:30;;;;;;;13.68;3.83;;;17.90;71.70;;;;;;6160617;23;20428;-81
2022/06/12 18:35:59;;;;;;;17.95;4.00;;;17.80;74.10;;;;;;6185851;23;20005;-80
2022/06/12 18:38:27;;;;;;;17.20;4.63;;;17.60;74.40;;;;;;6185610;23;20012;-80
2022/06/12 18:40:59;;;;;;;17.77;4.40;;;17.50;74.90;;;;;;6160846;23;20008;-79
2022/06/12 18:43:24;;;;;;;18.25;4.55;;;17.40;74.40;;;;;;6161071;23;20220;-79
2022/06/12 18:45:51;;;;;;;21.60;5.25;;;17.40;74.60;;;;;;6185485;23;20478;-80
2022/06/12 18:48:17;;;;;;;17.55;4.72;;;17.30;75.50;;;;;;6160546;23;20005;-80
2022/06/12 18:50:46;;;;;;;13.02;4.47;;;17.20;75.50;;;;;;6160554;23;20009;-79
2022/06/12 18:53:19;;;;;;;17.30;4.95;;;17.10;76.50;;;;;;6160851;23;20024;-78
2022/06/12 18:55:45;;;;;;;18.20;5.30;;;17.10;77.50;;;;;;6160557;23;20439;-80
2022/06/12 18:58:11;;;;;;;16.65;5.18;;;17.10;76.70;;;;;;6164166;23;20020;-82
2022/06/12 19:00:38;;;;;;;16.92;4.60;;;17.00;78.40;;;;;;6173303;23;20332;-81
2022/06/12 19:03:06;;;;;;;;;;;17.00;77.90;;;;;;6173963;23;20332;-80
2022/06/12 19:05:33;;;;;;;17.30;4.70;;;16.90;79.10;;;;;;6185693;23;19912;-79
2022/06/12 19:08:04;;;;;;;14.35;4.80;;;16.90;77.50;;;;;;6160364;23;20458;-81
2022/06/12 19:14:21;;;;;;;20.33;5.15;;;16.70;79.60;;;;;;6184477;23;20043;-76
2022/06/12 19:16:57;;;;;;;19.88;5.93;;;16.70;80.00;;;;;;6135437;23;20013;-82
2022/06/12 19:23:38;;;;;;;;;;;;;;;;;;;;;
2022/06/12 19:27:16;;;;;;;11.55;4.10;;;16.50;80.00;;;;;;6036189;23;20141;-80
2022/06/12 19:37:12;;;;;;;14.95;4.85;;;16.30;82.70;;;;;;5954001;23;20004;-81
2022/06/12 19:44:24;;;;;;;;;;;;;;;;;;;;;
2022/06/12 19:50:52;;;;;;;19.75;5.03;;;16.00;85.50;;;;;;6036705;23;20010;-75
2022/06/12 19:53:20;;;;;;;13.55;4.32;;;15.90;83.20;;;;;;6072349;23;20068;-77
2022/06/12 20:18:31;;;;;;;18.35;4.40;;;15.70;85.70;;;;;;6040328;23;20026;-72
2022/06/12 20:21:04;;;;;;;17.20;4.95;;;15.60;84.90;;;;;;6063734;23;20360;-71
2022/06/12 20:24:33;;;;;;;19.98;4.82;;;15.50;85.60;;;;;;6158939;23;20331;-73
2022/06/12 20:35:02;;;;;;;16.75;5.55;;;15.30;86.50;;;;;;6185086;23;20004;-73
2022/06/12 20:37:34;;;;;;;16.42;5.13;;;15.10;86.20;;;;;;6147984;23;20013;-79
2022/06/12 20:46:37;;;;;;;;;;;;;;;;;;;;;
2022/06/12 20:49:32;;;;;;;16.05;5.35;;;15.00;88.70;;;;;;6275734;22;20022;-73
2022/06/12 20:51:58;;;;;;;18.25;4.85;;;14.90;88.50;;;;;;6223728;22;20012;-74
2022/06/12 20:54:24;;;;;;;14.93;4.55;;;14.90;89.10;;;;;;6223836;22;20004;-76
2022/06/12 20:57:21;;;;;;;16.40;4.65;;;14.80;89.00;;;;;;6223923;22;20426;-77
2022/06/12 21:11:22;;;;;;;17.83;5.00;;;14.70;90.30;;;;;;6275445;22;20041;-75
2022/06/12 21:14:45;;;;;;;;;;;;;;;;;;;;;
2022/06/12 21:32:07;;;;;;;20.48;6.30;;;14.40;90.70;;;;;;5964683;23;20020;-81
2022/06/12 21:34:34;;;;;;;20.17;5.68;;;14.30;90.80;;;;;;6022011;23;20492;-78
2022/06/12 21:36:59;;;;;;;15.30;5.10;;;14.30;91.20;;;;;;6072221;23;20410;-78
2022/06/12 21:39:25;;;;;;;15.38;5.05;;;14.20;90.70;;;;;;6163251;23;20012;-78
2022/06/12 21:41:51;;;;;;;18.77;5.07;;;14.20;91.10;;;;;;6163051;23;20573;-78
2022/06/12 21:44:21;;;;;;;11.60;4.85;;;14.20;90.90;;;;;;6162790;23;20439;-79
2022/06/12 21:46:47;;;;;;;13.10;5.43;;;14.20;91.00;;;;;;6162443;23;20016;-78
2022/06/12 21:49:12;;;;;;;12.38;4.63;;;14.20;91.00;;;;;;6214345;22;20019;-79
2022/06/12 21:54:31;;;;;;;18.33;5.65;;;14.20;90.90;;;;;;6249255;22;20453;-79
2022/06/12 21:56:57;;;;;;;15.70;5.00;;;14.20;90.70;;;;;;6249707;22;20011;-79
2022/06/12 21:59:23;;;;;;;;;;;14.20;90.50;;;;;;6224745;22;20012;-79
2022/06/12 22:01:50;;;;;;;15.95;4.75;;;14.20;90.90;;;;;;6223859;22;19977;-78
2022/06/12 22:04:16;;;;;;;17.67;5.05;;;14.20;90.70;;;;;;6223228;22;20008;-78
2022/06/12 22:06:43;;;;;;;19.88;4.88;;;14.20;90.60;;;;;;6223567;22;20018;-78
2022/06/12 22:09:10;;;;;;;18.27;4.72;;;14.20;90.80;;;;;;6249751;22;20102;-78
2022/06/12 22:11:36;;;;;;;16.80;4.93;;;14.20;90.90;;;;;;6224276;22;20090;-78
2022/06/12 22:14:02;;;;;;;15.60;5.00;;;14.20;90.60;;;;;;6249651;22;20007;-79
2022/06/12 22:16:28;;;;;;;15.07;4.75;;;14.20;90.50;;;;;;6251608;22;20094;-78
2022/06/12 22:18:54;;;;;;;16.90;5.55;;;14.20;90.60;;;;;;6251232;22;20039;-78
2022/06/12 22:21:20;;;;;;;14.95;4.60;;;14.20;90.40;;;;;;6251002;22;20062;-79
2022/06/12 22:23:45;;;;;;;18.38;4.57;;;14.20;90.60;;;;;;6224880;22;20087;-78
2022/06/12 22:26:11;;;;;;;14.57;4.53;;;14.20;90.50;;;;;;6250803;22;20057;-78
2022/06/12 22:28:40;;;;;;;20.38;5.15;;;14.10;90.70;;;;;;6226327;22;20038;-79
2022/06/12 22:31:05;;;;;;;14.25;5.00;;;14.10;90.80;;;;;;6225809;22;20008;-78
2022/06/12 22:33:31;;;;;;;19.27;5.10;;;13.90;90.80;;;;;;6225547;22;20325;-78
2022/06/12 22:35:57;;;;;;;17.45;4.95;;;14.00;90.90;;;;;;6225435;22;20083;-79
2022/06/12 22:38:22;;;;;;;16.40;4.63;;;13.90;91.60;;;;;;6225628;22;20085;-79
2022/06/12 22:40:48;;;;;;;16.10;5.07;;;13.90;91.20;;;;;;6225817;22;20043;-78
2022/06/12 22:43:14;;;;;;;16.85;5.70;;;13.90;91.20;;;;;;6251087;22;20012;-78
2022/06/12 22:45:39;;;;;;;18.63;5.35;;;13.80;91.40;;;;;;6224891;22;20023;-78
2022/06/12 22:48:06;;;;;;;16.20;4.78;;;13.70;91.50;;;;;;6250168;22;20020;-79
2022/06/12 22:50:32;;;;;;;16.23;5.75;;;13.70;91.90;;;;;;6225635;22;20314;-78
2022/06/12 22:52:59;;;;;;;18.95;5.40;;;13.70;91.60;;;;;;6251383;22;20063;-78
2022/06/12 22:55:24;;;;;;;17.70;5.57;;;13.60;91.90;;;;;;6225933;22;20065;-79
2022/06/12 22:57:50;;;;;;;17.08;4.78;;;13.50;93.10;;;;;;6225095;22;20007;-78
2022/06/12 23:00:16;;;;;;;17.83;5.57;;;13.50;92.50;;;;;;6250565;22;20010;-79
2022/06/12 23:02:45;;;;;;;18.77;5.68;;;13.50;92.50;;;;;;6250349;22;20026;-78
2022/06/12 23:05:12;;;;;;;15.20;5.72;;;13.40;92.70;;;;;;6224916;22;20016;-78
2022/06/12 23:07:38;;;;;;;15.52;5.20;;;13.40;92.60;;;;;;6224748;22;20087;-78
2022/06/12 23:10:04;;;;;;;12.55;5.60;;;13.40;92.60;;;;;;6250066;22;20100;-78
2022/06/12 23:12:30;;;;;;;16.58;5.72;;;13.40;92.70;;;;;;6225364;22;20109;-79
2022/06/12 23:14:56;;;;;;;17.20;5.45;;;13.50;92.90;;;;;;6250355;22;20012;-80
2022/06/12 23:17:22;;;;;;;;;;;13.40;93.00;;;;;;6251191;22;20011;-79
2022/06/12 23:19:48;;;;;;;21.30;6.50;;;13.40;93.20;;;;;;6225911;22;19911;-79
2022/06/12 23:22:14;;;;;;;22.13;6.47;;;13.40;92.60;;;;;;6224908;22;20018;-77
2022/06/12 23:24:39;;;;;;;16.58;5.30;;;13.40;92.90;;;;;;6225246;22;20015;-79
2022/06/12 23:27:05;;;;;;;21.08;6.28;;;13.40;93.30;;;;;;6249587;22;20346;-79
2022/06/12 23:29:32;;;;;;;20.17;7.05;;;13.40;93.00;;;;;;6224763;22;20086;-78
2022/06/12 23:31:57;;;;;;;18.58;6.03;;;13.40;93.30;;;;;;6250508;22;20004;-78
2022/06/12 23:34:23;;;;;;;17.63;6.22;;;13.30;93.40;;;;;;6224978;22;20087;-79
2022/06/12 23:36:49;;;;;;;17.95;5.97;;;13.30;93.70;;;;;;6226102;22;20023;-78
2022/06/12 23:39:14;;;;;;;22.67;7.13;;;13.30;93.70;;;;;;6250575;22;20445;-78
2022/06/12 23:41:41;;;;;;;20.63;6.40;;;13.30;93.80;;;;;;6224898;22;20000;-78
2022/06/12 23:44:07;;;;;;;22.17;7.03;;;13.30;93.70;;;;;;6224068;22;20007;-79
2022/06/12 23:46:35;;;;;;;17.58;6.57;;;13.30;93.80;;;;;;6223666;22;20012;-78
2022/06/12 23:49:04;;;;;;;19.63;6.85;;;13.30;93.80;;;;;;6225590;22;20015;-78
2022/06/12 23:51:31;;;;;;;17.75;6.47;;;13.30;94.00;;;;;;6224666;22;20007;-78
2022/06/12 23:53:58;;;;;;;24.77;7.20;;;13.30;94.10;;;;;;6225335;22;20054;-78
2022/06/12 23:56:26;;;;;;;20.38;6.53;;;13.30;94.10;;;;;;6225320;22;20003;-78
2022/06/12 23:58:52;;;;;;;23.15;8.40;;;13.20;94.10;;;;;;6250794;22;20008;-78
